sensor_id;sensor_type;location;lat;lon;timestamp;temperature;humidity
13148;DHT22;6639;50.956;4.242;2023-07-08T00:00:13;28.80;85.90
13148;DHT22;6639;50.956;4.242;2023-07-08T00:02:41;28.80;86.00
13148;DHT22;6639;50.956;4.242;2023-07-08T00:05:12;28.70;85.20
13148;DHT22;6639;50.956;4.242;2023-07-08T00:07:40;28.70;84.90
13148;DHT22;6639;50.956;4.242;2023-07-08T00:10:15;28.70;85.20
13148;DHT22;6639;50.956;4.242;2023-07-08T00:12:43;28.70;84.20
13148;DHT22;6639;50.956;4.242;2023-07-08T00:15:11;28.80;84.60
13148;DHT22;6639;50.956;4.242;2023-07-08T00:17:38;28.70;84.50
13148;DHT22;6639;50.956;4.242;2023-07-08T00:20:12;28.70;84.50
13148;DHT22;6639;50.956;4.242;2023-07-08T00:22:40;28.70;84.50
13148;DHT22;6639;50.956;4.242;2023-07-08T00:25:08;28.70;84.80
13148;DHT22;6639;50.956;4.242;2023-07-08T00:27:35;28.70;85.10
13148;DHT22;6639;50.956;4.242;2023-07-08T00:30:10;28.60;85.30
13148;DHT22;6639;50.956;4.242;2023-07-08T00:32:41;28.60;85.10
13148;DHT22;6639;50.956;4.242;2023-07-08T00:35:08;28.60;85.40
13148;DHT22;6639;50.956;4.242;2023-07-08T00:37:37;28.50;85.60
13148;DHT22;6639;50.956;4.242;2023-07-08T00:40:14;28.50;86.20
13148;DHT22;6639;50.956;4.242;2023-07-08T00:42:42;28.40;86.10
13148;DHT22;6639;50.956;4.242;2023-07-08T00:45:18;28.30;86.00
13148;DHT22;6639;50.956;4.242;2023-07-08T00:47:49;28.30;86.00
13148;DHT22;6639;50.956;4.242;2023-07-08T00:50:18;28.30;86.60
13148;DHT22;6639;50.956;4.242;2023-07-08T00:52:46;28.30;86.90
13148;DHT22;6639;50.956;4.242;2023-07-08T00:55:13;28.20;87.30
13148;DHT22;6639;50.956;4.242;2023-07-08T00:57:43;28.20;87.30
13148;DHT22;6639;50.956;4.242;2023-07-08T01:00:14;28.20;87.70
13148;DHT22;6639;50.956;4.242;2023-07-08T01:02:45;28.10;88.10
13148;DHT22;6639;50.956;4.242;2023-07-08T01:05:15;28.00;88.70
13148;DHT22;6639;50.956;4.242;2023-07-08T01:07:48;27.90;88.80
13148;DHT22;6639;50.956;4.242;2023-07-08T01:10:19;28.00;89.20
13148;DHT22;6639;50.956;4.242;2023-07-08T01:12:49;28.00;89.20
13148;DHT22;6639;50.956;4.242;2023-07-08T01:15:18;27.90;89.70
13148;DHT22;6639;50.956;4.242;2023-07-08T01:17:47;27.80;89.50
13148;DHT22;6639;50.956;4.242;2023-07-08T01:20:19;27.70;89.20
13148;DHT22;6639;50.956;4.242;2023-07-08T01:22:47;27.70;89.80
13148;DHT22;6639;50.956;4.242;2023-07-08T01:25:15;27.70;89.90
13148;DHT22;6639;50.956;4.242;2023-07-08T01:27:44;27.50;90.30
13148;DHT22;6639;50.956;4.242;2023-07-08T01:30:14;27.50;90.30
13148;DHT22;6639;50.956;4.242;2023-07-08T01:32:46;27.50;90.40
13148;DHT22;6639;50.956;4.242;2023-07-08T01:35:14;27.50;90.30
13148;DHT22;6639;50.956;4.242;2023-07-08T01:37:44;27.40;90.10
13148;DHT22;6639;50.956;4.242;2023-07-08T01:40:24;27.40;90.10
13148;DHT22;6639;50.956;4.242;2023-07-08T01:42:51;27.40;90.30
13148;DHT22;6639;50.956;4.242;2023-07-08T01:45:19;27.20;90.20
13148;DHT22;6639;50.956;4.242;2023-07-08T01:47:50;27.10;90.10
13148;DHT22;6639;50.956;4.242;2023-07-08T01:50:18;27.10;90.20
13148;DHT22;6639;50.956;4.242;2023-07-08T01:52:47;27.30;90.30
13148;DHT22;6639;50.956;4.242;2023-07-08T01:55:14;27.20;90.30
13148;DHT22;6639;50.956;4.242;2023-07-08T01:57:42;27.00;90.50
13148;DHT22;6639;50.956;4.242;2023-07-08T02:00:10;27.00;90.40
13148;DHT22;6639;50.956;4.242;2023-07-08T02:02:37;27.00;90.30
13148;DHT22;6639;50.956;4.242;2023-07-08T02:05:04;26.90;90.50
13148;DHT22;6639;50.956;4.242;2023-07-08T02:07:31;27.00;90.70
13148;DHT22;6639;50.956;4.242;2023-07-08T02:09:58;26.90;91.00
13148;DHT22;6639;50.956;4.242;2023-07-08T02:12:25;26.70;91.10
13148;DHT22;6639;50.956;4.242;2023-07-08T02:14:53;26.70;91.30
13148;DHT22;6639;50.956;4.242;2023-07-08T02:17:20;26.80;91.30
13148;DHT22;6639;50.956;4.242;2023-07-08T02:19:47;26.80;91.20
13148;DHT22;6639;50.956;4.242;2023-07-08T02:22:14;26.70;91.30
13148;DHT22;6639;50.956;4.242;2023-07-08T02:24:41;26.50;91.20
13148;DHT22;6639;50.956;4.242;2023-07-08T02:27:07;26.60;91.30
13148;DHT22;6639;50.956;4.242;2023-07-08T02:29:34;26.70;91.20
13148;DHT22;6639;50.956;4.242;2023-07-08T02:32:05;26.70;91.00
13148;DHT22;6639;50.956;4.242;2023-07-08T02:34:32;26.70;91.10
13148;DHT22;6639;50.956;4.242;2023-07-08T02:36:59;26.70;91.20
13148;DHT22;6639;50.956;4.242;2023-07-08T02:39:26;26.50;91.10
13148;DHT22;6639;50.956;4.242;2023-07-08T02:41:53;26.50;91.20
13148;DHT22;6639;50.956;4.242;2023-07-08T02:44:20;26.50;91.20
13148;DHT22;6639;50.956;4.242;2023-07-08T02:46:47;26.50;91.20
13148;DHT22;6639;50.956;4.242;2023-07-08T02:49:15;26.50;91.40
13148;DHT22;6639;50.956;4.242;2023-07-08T02:51:42;26.40;91.60
13148;DHT22;6639;50.956;4.242;2023-07-08T02:54:09;26.40;91.50
13148;DHT22;6639;50.956;4.242;2023-07-08T02:56:36;26.30;91.30
13148;DHT22;6639;50.956;4.242;2023-07-08T02:59:02;26.40;91.40
13148;DHT22;6639;50.956;4.242;2023-07-08T03:01:29;26.30;91.40
13148;DHT22;6639;50.956;4.242;2023-07-08T03:03:56;26.20;91.60
13148;DHT22;6639;50.956;4.242;2023-07-08T03:06:27;26.20;91.50
13148;DHT22;6639;50.956;4.242;2023-07-08T03:08:54;26.30;91.40
13148;DHT22;6639;50.956;4.242;2023-07-08T03:11:21;26.30;91.40
13148;DHT22;6639;50.956;4.242;2023-07-08T03:13:47;26.30;91.40
13148;DHT22;6639;50.956;4.242;2023-07-08T03:16:14;26.20;91.60
13148;DHT22;6639;50.956;4.242;2023-07-08T03:18:41;26.20;91.70
13148;DHT22;6639;50.956;4.242;2023-07-08T03:21:13;26.20;91.80
13148;DHT22;6639;50.956;4.242;2023-07-08T03:23:41;26.10;91.90
13148;DHT22;6639;50.956;4.242;2023-07-08T03:26:13;26.10;91.90
13148;DHT22;6639;50.956;4.242;2023-07-08T03:28:41;26.00;92.00
13148;DHT22;6639;50.956;4.242;2023-07-08T03:31:09;26.00;92.20
13148;DHT22;6639;50.956;4.242;2023-07-08T03:33:36;25.90;92.20
13148;DHT22;6639;50.956;4.242;2023-07-08T03:36:04;25.90;92.10
13148;DHT22;6639;50.956;4.242;2023-07-08T03:38:31;26.00;92.40
13148;DHT22;6639;50.956;4.242;2023-07-08T03:40:59;26.00;92.50
13148;DHT22;6639;50.956;4.242;2023-07-08T03:43:26;26.00;92.40
13148;DHT22;6639;50.956;4.242;2023-07-08T03:45:53;26.10;91.90
13148;DHT22;6639;50.956;4.242;2023-07-08T03:48:20;26.10;92.10
13148;DHT22;6639;50.956;4.242;2023-07-08T03:50:47;26.00;92.20
13148;DHT22;6639;50.956;4.242;2023-07-08T03:53:14;26.10;92.20
13148;DHT22;6639;50.956;4.242;2023-07-08T03:55:41;26.10;92.70
13148;DHT22;6639;50.956;4.242;2023-07-08T03:58:09;26.00;92.40
13148;DHT22;6639;50.956;4.242;2023-07-08T04:00:36;26.10;92.40
13148;DHT22;6639;50.956;4.242;2023-07-08T04:03:03;26.10;92.50
13148;DHT22;6639;50.956;4.242;2023-07-08T04:05:30;26.10;92.40
13148;DHT22;6639;50.956;4.242;2023-07-08T04:07:57;26.00;92.50
13148;DHT22;6639;50.956;4.242;2023-07-08T04:10:24;25.90;92.80
13148;DHT22;6639;50.956;4.242;2023-07-08T04:12:51;25.80;92.90
13148;DHT22;6639;50.956;4.242;2023-07-08T04:15:19;25.90;93.00
13148;DHT22;6639;50.956;4.242;2023-07-08T04:17:51;25.90;93.20
13148;DHT22;6639;50.956;4.242;2023-07-08T04:20:19;25.80;93.30
13148;DHT22;6639;50.956;4.242;2023-07-08T04:22:46;25.80;93.20
13148;DHT22;6639;50.956;4.242;2023-07-08T04:25:14;25.80;93.00
13148;DHT22;6639;50.956;4.242;2023-07-08T04:27:40;25.90;92.90
13148;DHT22;6639;50.956;4.242;2023-07-08T04:30:14;26.00;92.70
13148;DHT22;6639;50.956;4.242;2023-07-08T04:32:45;26.10;92.60
13148;DHT22;6639;50.956;4.242;2023-07-08T04:35:12;26.20;92.50
13148;DHT22;6639;50.956;4.242;2023-07-08T04:37:39;26.20;92.50
13148;DHT22;6639;50.956;4.242;2023-07-08T04:40:16;26.30;92.50
13148;DHT22;6639;50.956;4.242;2023-07-08T04:42:44;26.50;92.40
13148;DHT22;6639;50.956;4.242;2023-07-08T04:45:14;26.60;92.40
13148;DHT22;6639;50.956;4.242;2023-07-08T04:47:41;26.80;92.30
13148;DHT22;6639;50.956;4.242;2023-07-08T04:50:10;26.80;92.70
13148;DHT22;6639;50.956;4.242;2023-07-08T04:52:37;27.10;92.80
13148;DHT22;6639;50.956;4.242;2023-07-08T04:55:05;27.20;92.60
13148;DHT22;6639;50.956;4.242;2023-07-08T04:57:32;27.40;92.20
13148;DHT22;6639;50.956;4.242;2023-07-08T04:59:59;27.60;91.90
13148;DHT22;6639;50.956;4.242;2023-07-08T05:02:26;27.80;91.50
13148;DHT22;6639;50.956;4.242;2023-07-08T05:04:52;27.90;91.30
13148;DHT22;6639;50.956;4.242;2023-07-08T05:07:21;28.00;91.60
13148;DHT22;6639;50.956;4.242;2023-07-08T05:09:48;28.20;90.70
13148;DHT22;6639;50.956;4.242;2023-07-08T05:12:14;28.30;90.20
13148;DHT22;6639;50.956;4.242;2023-07-08T05:14:41;28.50;90.00
13148;DHT22;6639;50.956;4.242;2023-07-08T05:17:08;28.60;89.50
13148;DHT22;6639;50.956;4.242;2023-07-08T05:19:35;28.70;89.40
13148;DHT22;6639;50.956;4.242;2023-07-08T05:22:03;28.60;89.80
13148;DHT22;6639;50.956;4.242;2023-07-08T05:24:31;28.80;88.70
13148;DHT22;6639;50.956;4.242;2023-07-08T05:26:58;28.50;89.10
13148;DHT22;6639;50.956;4.242;2023-07-08T05:29:25;29.10;89.70
13148;DHT22;6639;50.956;4.242;2023-07-08T05:31:52;29.50;88.70
13148;DHT22;6639;50.956;4.242;2023-07-08T05:34:19;29.90;88.10
13148;DHT22;6639;50.956;4.242;2023-07-08T05:36:45;30.10;87.40
13148;DHT22;6639;50.956;4.242;2023-07-08T05:39:13;30.40;87.50
13148;DHT22;6639;50.956;4.242;2023-07-08T05:41:41;30.40;87.20
13148;DHT22;6639;50.956;4.242;2023-07-08T05:44:08;30.40;85.50
13148;DHT22;6639;50.956;4.242;2023-07-08T05:46:35;30.40;86.10
13148;DHT22;6639;50.956;4.242;2023-07-08T05:49:02;30.80;86.50
13148;DHT22;6639;50.956;4.242;2023-07-08T05:51:28;30.80;86.10
13148;DHT22;6639;50.956;4.242;2023-07-08T05:53:55;31.00;86.80
13148;DHT22;6639;50.956;4.242;2023-07-08T05:56:22;31.40;86.40
13148;DHT22;6639;50.956;4.242;2023-07-08T05:58:50;31.60;85.00
13148;DHT22;6639;50.956;4.242;2023-07-08T06:01:17;31.60;84.30
13148;DHT22;6639;50.956;4.242;2023-07-08T06:03:44;31.70;85.30
13148;DHT22;6639;50.956;4.242;2023-07-08T06:06:11;32.10;85.30
13148;DHT22;6639;50.956;4.242;2023-07-08T06:08:38;32.30;84.30
13148;DHT22;6639;50.956;4.242;2023-07-08T06:11:05;32.80;83.80
13148;DHT22;6639;50.956;4.242;2023-07-08T06:13:32;33.10;82.30
13148;DHT22;6639;50.956;4.242;2023-07-08T06:16:00;33.10;82.10
13148;DHT22;6639;50.956;4.242;2023-07-08T06:18:27;33.20;83.50
13148;DHT22;6639;50.956;4.242;2023-07-08T06:20:56;33.50;81.30
13148;DHT22;6639;50.956;4.242;2023-07-08T06:23:23;33.70;81.20
13148;DHT22;6639;50.956;4.242;2023-07-08T06:25:50;34.10;81.50
13148;DHT22;6639;50.956;4.242;2023-07-08T06:28:17;34.10;82.20
13148;DHT22;6639;50.956;4.242;2023-07-08T06:30:45;33.90;81.80
13148;DHT22;6639;50.956;4.242;2023-07-08T06:33:14;33.90;82.40
13148;DHT22;6639;50.956;4.242;2023-07-08T06:35:41;33.80;82.50
13148;DHT22;6639;50.956;4.242;2023-07-08T06:38:08;34.00;82.10
13148;DHT22;6639;50.956;4.242;2023-07-08T06:40:35;34.50;83.20
13148;DHT22;6639;50.956;4.242;2023-07-08T06:43:02;34.10;82.10
13148;DHT22;6639;50.956;4.242;2023-07-08T06:45:29;34.30;81.50
13148;DHT22;6639;50.956;4.242;2023-07-08T06:47:56;33.80;81.60
13148;DHT22;6639;50.956;4.242;2023-07-08T06:50:24;33.80;83.30
13148;DHT22;6639;50.956;4.242;2023-07-08T06:52:51;33.80;82.80
13148;DHT22;6639;50.956;4.242;2023-07-08T06:55:18;33.80;82.80
13148;DHT22;6639;50.956;4.242;2023-07-08T06:57:45;33.90;83.20
13148;DHT22;6639;50.956;4.242;2023-07-08T07:00:14;34.20;82.60
13148;DHT22;6639;50.956;4.242;2023-07-08T07:02:41;33.80;83.30
13148;DHT22;6639;50.956;4.242;2023-07-08T07:05:09;34.60;83.10
13148;DHT22;6639;50.956;4.242;2023-07-08T07:07:37;34.90;82.50
13148;DHT22;6639;50.956;4.242;2023-07-08T07:10:05;35.30;81.80
13148;DHT22;6639;50.956;4.242;2023-07-08T07:12:33;35.90;80.40
13148;DHT22;6639;50.956;4.242;2023-07-08T07:15:01;36.20;80.50
13148;DHT22;6639;50.956;4.242;2023-07-08T07:17:28;35.90;78.30
13148;DHT22;6639;50.956;4.242;2023-07-08T07:19:55;36.50;79.60
13148;DHT22;6639;50.956;4.242;2023-07-08T07:22:22;36.40;78.80
13148;DHT22;6639;50.956;4.242;2023-07-08T07:24:51;36.90;79.60
13148;DHT22;6639;50.956;4.242;2023-07-08T07:27:18;37.00;78.10
13148;DHT22;6639;50.956;4.242;2023-07-08T07:29:47;36.90;77.90
13148;DHT22;6639;50.956;4.242;2023-07-08T07:32:15;37.20;77.50
13148;DHT22;6639;50.956;4.242;2023-07-08T07:34:45;37.20;77.80
13148;DHT22;6639;50.956;4.242;2023-07-08T07:37:13;37.80;77.80
13148;DHT22;6639;50.956;4.242;2023-07-08T07:39:40;37.90;78.40
13148;DHT22;6639;50.956;4.242;2023-07-08T07:42:09;37.80;79.30
13148;DHT22;6639;50.956;4.242;2023-07-08T07:44:37;38.20;78.20
13148;DHT22;6639;50.956;4.242;2023-07-08T07:47:05;38.40;76.50
13148;DHT22;6639;50.956;4.242;2023-07-08T07:49:32;38.30;76.70
13148;DHT22;6639;50.956;4.242;2023-07-08T07:52:00;38.20;76.40
13148;DHT22;6639;50.956;4.242;2023-07-08T07:54:26;37.80;77.60
13148;DHT22;6639;50.956;4.242;2023-07-08T07:56:53;38.00;79.50
13148;DHT22;6639;50.956;4.242;2023-07-08T07:59:22;38.00;79.60
13148;DHT22;6639;50.956;4.242;2023-07-08T08:01:49;38.00;77.00
13148;DHT22;6639;50.956;4.242;2023-07-08T08:04:16;38.20;76.20
13148;DHT22;6639;50.956;4.242;2023-07-08T08:06:43;38.60;77.40
13148;DHT22;6639;50.956;4.242;2023-07-08T08:09:10;38.70;75.90
13148;DHT22;6639;50.956;4.242;2023-07-08T08:11:37;39.40;74.60
13148;DHT22;6639;50.956;4.242;2023-07-08T08:14:03;39.60;73.00
13148;DHT22;6639;50.956;4.242;2023-07-08T08:16:32;40.00;73.70
13148;DHT22;6639;50.956;4.242;2023-07-08T08:18:59;40.00;74.00
13148;DHT22;6639;50.956;4.242;2023-07-08T08:21:26;40.20;72.70
13148;DHT22;6639;50.956;4.242;2023-07-08T08:23:52;40.30;72.50
13148;DHT22;6639;50.956;4.242;2023-07-08T08:26:19;40.40;75.00
13148;DHT22;6639;50.956;4.242;2023-07-08T08:28:46;39.80;73.10
13148;DHT22;6639;50.956;4.242;2023-07-08T08:31:13;40.00;73.90
13148;DHT22;6639;50.956;4.242;2023-07-08T08:33:41;40.30;72.30
13148;DHT22;6639;50.956;4.242;2023-07-08T08:36:08;39.90;74.50
13148;DHT22;6639;50.956;4.242;2023-07-08T08:38:35;39.80;74.20
13148;DHT22;6639;50.956;4.242;2023-07-08T08:41:10;39.90;71.70
13148;DHT22;6639;50.956;4.242;2023-07-08T08:43:39;40.40;69.50
13148;DHT22;6639;50.956;4.242;2023-07-08T08:46:12;40.90;67.60
13148;DHT22;6639;50.956;4.242;2023-07-08T08:48:50;40.40;66.90
13148;DHT22;6639;50.956;4.242;2023-07-08T08:51:18;40.60;67.80
13148;DHT22;6639;50.956;4.242;2023-07-08T08:53:46;41.20;66.80
13148;DHT22;6639;50.956;4.242;2023-07-08T08:56:18;41.40;65.30
13148;DHT22;6639;50.956;4.242;2023-07-08T08:58:52;41.70;65.00
13148;DHT22;6639;50.956;4.242;2023-07-08T09:01:21;41.30;64.80
13148;DHT22;6639;50.956;4.242;2023-07-08T09:03:52;41.50;65.60
13148;DHT22;6639;50.956;4.242;2023-07-08T09:06:25;41.30;64.50
13148;DHT22;6639;50.956;4.242;2023-07-08T09:08:53;41.10;66.60
13148;DHT22;6639;50.956;4.242;2023-07-08T09:11:40;40.90;65.70
13148;DHT22;6639;50.956;4.242;2023-07-08T09:14:14;41.50;65.50
13148;DHT22;6639;50.956;4.242;2023-07-08T09:16:47;41.70;63.50
13148;DHT22;6639;50.956;4.242;2023-07-08T09:19:21;41.90;63.50
13148;DHT22;6639;50.956;4.242;2023-07-08T09:21:54;42.00;62.70
13148;DHT22;6639;50.956;4.242;2023-07-08T09:24:29;41.70;60.10
13148;DHT22;6639;50.956;4.242;2023-07-08T09:26:58;42.30;61.60
13148;DHT22;6639;50.956;4.242;2023-07-08T09:29:27;42.70;58.90
13148;DHT22;6639;50.956;4.242;2023-07-08T09:31:55;42.90;59.80
13148;DHT22;6639;50.956;4.242;2023-07-08T09:34:36;42.60;60.20
13148;DHT22;6639;50.956;4.242;2023-07-08T09:37:20;42.40;59.00
13148;DHT22;6639;50.956;4.242;2023-07-08T09:39:47;42.50;60.80
13148;DHT22;6639;50.956;4.242;2023-07-08T09:42:15;42.50;61.40
13148;DHT22;6639;50.956;4.242;2023-07-08T09:44:44;42.80;61.00
13148;DHT22;6639;50.956;4.242;2023-07-08T09:47:21;42.70;62.40
13148;DHT22;6639;50.956;4.242;2023-07-08T09:49:52;42.30;59.50
13148;DHT22;6639;50.956;4.242;2023-07-08T09:52:19;42.40;61.50
13148;DHT22;6639;50.956;4.242;2023-07-08T09:54:46;42.70;60.40
13148;DHT22;6639;50.956;4.242;2023-07-08T09:57:21;42.70;59.80
13148;DHT22;6639;50.956;4.242;2023-07-08T09:59:56;42.70;59.50
13148;DHT22;6639;50.956;4.242;2023-07-08T10:02:31;42.90;59.40
13148;DHT22;6639;50.956;4.242;2023-07-08T10:05:03;43.20;59.80
13148;DHT22;6639;50.956;4.242;2023-07-08T10:07:37;43.00;59.80
13148;DHT22;6639;50.956;4.242;2023-07-08T10:10:07;42.60;60.00
13148;DHT22;6639;50.956;4.242;2023-07-08T10:12:38;42.60;60.60
13148;DHT22;6639;50.956;4.242;2023-07-08T10:15:15;42.20;59.70
13148;DHT22;6639;50.956;4.242;2023-07-08T10:17:45;42.30;60.20
13148;DHT22;6639;50.956;4.242;2023-07-08T10:20:14;42.50;59.80
13148;DHT22;6639;50.956;4.242;2023-07-08T10:22:47;42.20;60.10
13148;DHT22;6639;50.956;4.242;2023-07-08T10:25:28;42.80;61.10
13148;DHT22;6639;50.956;4.242;2023-07-08T10:28:03;42.90;62.40
13148;DHT22;6639;50.956;4.242;2023-07-08T10:30:39;42.90;60.60
13148;DHT22;6639;50.956;4.242;2023-07-08T10:33:20;42.60;59.50
13148;DHT22;6639;50.956;4.242;2023-07-08T10:35:57;42.90;59.80
13148;DHT22;6639;50.956;4.242;2023-07-08T10:38:40;41.50;58.80
13148;DHT22;6639;50.956;4.242;2023-07-08T10:41:16;41.60;61.00
13148;DHT22;6639;50.956;4.242;2023-07-08T10:43:58;41.30;58.00
13148;DHT22;6639;50.956;4.242;2023-07-08T10:46:38;41.60;57.50
13148;DHT22;6639;50.956;4.242;2023-07-08T10:49:27;41.00;60.70
13148;DHT22;6639;50.956;4.242;2023-07-08T10:52:05;41.00;61.00
13148;DHT22;6639;50.956;4.242;2023-07-08T10:54:51;41.50;60.70
13148;DHT22;6639;50.956;4.242;2023-07-08T10:57:39;41.70;59.20
13148;DHT22;6639;50.956;4.242;2023-07-08T11:00:19;41.70;58.20
13148;DHT22;6639;50.956;4.242;2023-07-08T11:03:16;41.10;58.50
13148;DHT22;6639;50.956;4.242;2023-07-08T11:05:52;41.30;58.80
13148;DHT22;6639;50.956;4.242;2023-07-08T11:08:27;41.70;60.80
13148;DHT22;6639;50.956;4.242;2023-07-08T11:10:58;41.90;58.50
13148;DHT22;6639;50.956;4.242;2023-07-08T11:13:28;41.80;57.90
13148;DHT22;6639;50.956;4.242;2023-07-08T11:16:01;42.00;58.50
13148;DHT22;6639;50.956;4.242;2023-07-08T11:18:38;41.60;58.00
13148;DHT22;6639;50.956;4.242;2023-07-08T11:21:10;41.60;59.70
13148;DHT22;6639;50.956;4.242;2023-07-08T11:23:43;41.70;60.10
13148;DHT22;6639;50.956;4.242;2023-07-08T11:26:16;41.70;58.50
13148;DHT22;6639;50.956;4.242;2023-07-08T11:28:46;41.70;58.00
13148;DHT22;6639;50.956;4.242;2023-07-08T11:31:13;41.20;58.70
13148;DHT22;6639;50.956;4.242;2023-07-08T11:33:41;41.40;61.60
13148;DHT22;6639;50.956;4.242;2023-07-08T11:36:09;42.20;61.40
13148;DHT22;6639;50.956;4.242;2023-07-08T11:38:37;41.40;57.80
13148;DHT22;6639;50.956;4.242;2023-07-08T11:41:18;42.10;59.20
13148;DHT22;6639;50.956;4.242;2023-07-08T11:43:48;42.00;58.60
13148;DHT22;6639;50.956;4.242;2023-07-08T11:46:19;42.30;59.20
13148;DHT22;6639;50.956;4.242;2023-07-08T11:48:50;41.90;58.30
13148;DHT22;6639;50.956;4.242;2023-07-08T11:51:18;41.40;58.20
13148;DHT22;6639;50.956;4.242;2023-07-08T11:53:50;41.50;58.90
13148;DHT22;6639;50.956;4.242;2023-07-08T11:56:25;41.90;59.00
13148;DHT22;6639;50.956;4.242;2023-07-08T11:59:12;41.80;59.30
13148;DHT22;6639;50.956;4.242;2023-07-08T12:01:48;41.30;57.20
13148;DHT22;6639;50.956;4.242;2023-07-08T12:04:29;41.20;58.90
13148;DHT22;6639;50.956;4.242;2023-07-08T12:07:10;41.60;58.00
13148;DHT22;6639;50.956;4.242;2023-07-08T12:09:44;41.60;58.80
13148;DHT22;6639;50.956;4.242;2023-07-08T12:12:19;42.20;58.30
13148;DHT22;6639;50.956;4.242;2023-07-08T12:14:47;42.80;58.20
13148;DHT22;6639;50.956;4.242;2023-07-08T12:17:15;42.10;57.50
13148;DHT22;6639;50.956;4.242;2023-07-08T12:19:43;41.90;58.50
13148;DHT22;6639;50.956;4.242;2023-07-08T12:22:11;42.10;58.20
13148;DHT22;6639;50.956;4.242;2023-07-08T12:24:39;42.10;58.60
13148;DHT22;6639;50.956;4.242;2023-07-08T12:27:09;42.00;58.10
13148;DHT22;6639;50.956;4.242;2023-07-08T12:29:37;42.40;57.60
13148;DHT22;6639;50.956;4.242;2023-07-08T12:32:05;42.00;59.40
13148;DHT22;6639;50.956;4.242;2023-07-08T12:34:33;41.60;59.10
13148;DHT22;6639;50.956;4.242;2023-07-08T12:37:00;42.20;57.90
13148;DHT22;6639;50.956;4.242;2023-07-08T12:39:32;43.00;58.50
13148;DHT22;6639;50.956;4.242;2023-07-08T12:41:59;43.20;58.20
13148;DHT22;6639;50.956;4.242;2023-07-08T12:44:26;43.70;58.50
13148;DHT22;6639;50.956;4.242;2023-07-08T12:46:55;43.70;57.00
13148;DHT22;6639;50.956;4.242;2023-07-08T12:49:22;43.00;58.50
13148;DHT22;6639;50.956;4.242;2023-07-08T12:51:52;43.10;57.80
13148;DHT22;6639;50.956;4.242;2023-07-08T12:54:19;43.00;57.00
13148;DHT22;6639;50.956;4.242;2023-07-08T12:56:47;43.30;57.50
13148;DHT22;6639;50.956;4.242;2023-07-08T12:59:18;43.60;57.10
13148;DHT22;6639;50.956;4.242;2023-07-08T13:01:46;43.10;57.40
13148;DHT22;6639;50.956;4.242;2023-07-08T13:04:15;43.40;55.70
13148;DHT22;6639;50.956;4.242;2023-07-08T13:06:44;43.40;56.80
13148;DHT22;6639;50.956;4.242;2023-07-08T13:09:27;43.80;57.60
13148;DHT22;6639;50.956;4.242;2023-07-08T13:11:57;43.60;57.50
13148;DHT22;6639;50.956;4.242;2023-07-08T13:14:24;42.90;59.60
13148;DHT22;6639;50.956;4.242;2023-07-08T13:16:52;43.10;59.30
13148;DHT22;6639;50.956;4.242;2023-07-08T13:19:21;42.80;57.40
13148;DHT22;6639;50.956;4.242;2023-07-08T13:21:48;43.00;56.10
13148;DHT22;6639;50.956;4.242;2023-07-08T13:24:16;43.60;56.50
13148;DHT22;6639;50.956;4.242;2023-07-08T13:26:46;43.80;56.60
13148;DHT22;6639;50.956;4.242;2023-07-08T13:29:15;43.20;58.50
13148;DHT22;6639;50.956;4.242;2023-07-08T13:31:47;41.90;61.00
13148;DHT22;6639;50.956;4.242;2023-07-08T13:34:17;39.90;61.80
13148;DHT22;6639;50.956;4.242;2023-07-08T13:36:50;38.50;64.60
13148;DHT22;6639;50.956;4.242;2023-07-08T13:39:22;38.40;66.00
13148;DHT22;6639;50.956;4.242;2023-07-08T13:41:51;38.30;68.00
13148;DHT22;6639;50.956;4.242;2023-07-08T13:44:18;38.20;68.00
13148;DHT22;6639;50.956;4.242;2023-07-08T13:46:50;38.40;68.20
13148;DHT22;6639;50.956;4.242;2023-07-08T13:49:23;38.20;68.80
13148;DHT22;6639;50.956;4.242;2023-07-08T13:51:52;38.10;69.50
13148;DHT22;6639;50.956;4.242;2023-07-08T13:54:21;38.20;70.40
13148;DHT22;6639;50.956;4.242;2023-07-08T13:56:49;38.70;70.90
13148;DHT22;6639;50.956;4.242;2023-07-08T13:59:20;38.90;70.50
13148;DHT22;6639;50.956;4.242;2023-07-08T14:01:50;38.80;71.10
13148;DHT22;6639;50.956;4.242;2023-07-08T14:04:20;37.60;70.30
13148;DHT22;6639;50.956;4.242;2023-07-08T14:06:48;37.30;69.00
13148;DHT22;6639;50.956;4.242;2023-07-08T14:09:18;37.20;71.20
13148;DHT22;6639;50.956;4.242;2023-07-08T14:11:45;36.20;73.70
13148;DHT22;6639;50.956;4.242;2023-07-08T14:14:13;35.60;76.90
13148;DHT22;6639;50.956;4.242;2023-07-08T14:16:41;35.80;75.20
13148;DHT22;6639;50.956;4.242;2023-07-08T14:19:13;35.90;73.40
13148;DHT22;6639;50.956;4.242;2023-07-08T14:21:41;36.10;72.50
13148;DHT22;6639;50.956;4.242;2023-07-08T14:24:10;36.20;71.40
13148;DHT22;6639;50.956;4.242;2023-07-08T14:26:40;36.60;71.30
13148;DHT22;6639;50.956;4.242;2023-07-08T14:29:07;36.70;70.20
13148;DHT22;6639;50.956;4.242;2023-07-08T14:31:35;36.90;70.10
13148;DHT22;6639;50.956;4.242;2023-07-08T14:34:04;37.20;69.80
13148;DHT22;6639;50.956;4.242;2023-07-08T14:36:31;37.60;69.70
13148;DHT22;6639;50.956;4.242;2023-07-08T14:38:58;38.20;69.50
13148;DHT22;6639;50.956;4.242;2023-07-08T14:41:26;38.40;67.80
13148;DHT22;6639;50.956;4.242;2023-07-08T14:43:54;38.60;68.40
13148;DHT22;6639;50.956;4.242;2023-07-08T14:46:21;38.80;67.80
13148;DHT22;6639;50.956;4.242;2023-07-08T14:48:48;39.20;67.20
13148;DHT22;6639;50.956;4.242;2023-07-08T14:51:15;39.30;66.70
13148;DHT22;6639;50.956;4.242;2023-07-08T14:53:42;39.60;66.40
13148;DHT22;6639;50.956;4.242;2023-07-08T14:56:13;39.30;65.70
13148;DHT22;6639;50.956;4.242;2023-07-08T14:58:44;38.90;67.70
13148;DHT22;6639;50.956;4.242;2023-07-08T15:01:17;39.40;66.80
13148;DHT22;6639;50.956;4.242;2023-07-08T15:03:45;39.50;67.70
13148;DHT22;6639;50.956;4.242;2023-07-08T15:06:12;39.60;67.00
13148;DHT22;6639;50.956;4.242;2023-07-08T15:08:39;39.50;67.70
13148;DHT22;6639;50.956;4.242;2023-07-08T15:11:10;39.40;67.60
13148;DHT22;6639;50.956;4.242;2023-07-08T15:13:37;39.40;67.10
13148;DHT22;6639;50.956;4.242;2023-07-08T15:16:05;39.20;66.70
13148;DHT22;6639;50.956;4.242;2023-07-08T15:18:33;39.10;65.60
13148;DHT22;6639;50.956;4.242;2023-07-08T15:21:00;38.90;66.40
13148;DHT22;6639;50.956;4.242;2023-07-08T15:23:27;39.00;68.30
13148;DHT22;6639;50.956;4.242;2023-07-08T15:25:54;38.80;69.40
13148;DHT22;6639;50.956;4.242;2023-07-08T15:28:37;38.40;70.80
13148;DHT22;6639;50.956;4.242;2023-07-08T15:31:08;38.80;71.00
13148;DHT22;6639;50.956;4.242;2023-07-08T15:33:38;38.70;71.10
13148;DHT22;6639;50.956;4.242;2023-07-08T15:36:07;38.90;71.80
13148;DHT22;6639;50.956;4.242;2023-07-08T15:38:35;39.10;71.40
13148;DHT22;6639;50.956;4.242;2023-07-08T15:41:02;39.20;70.90
13148;DHT22;6639;50.956;4.242;2023-07-08T15:43:29;39.20;71.90
13148;DHT22;6639;50.956;4.242;2023-07-08T15:45:56;38.90;71.80
13148;DHT22;6639;50.956;4.242;2023-07-08T15:48:23;39.20;72.90
13148;DHT22;6639;50.956;4.242;2023-07-08T15:50:51;39.50;71.70
13148;DHT22;6639;50.956;4.242;2023-07-08T15:53:18;39.70;71.20
13148;DHT22;6639;50.956;4.242;2023-07-08T15:55:46;40.00;70.80
13148;DHT22;6639;50.956;4.242;2023-07-08T15:58:24;40.20;72.00